createdAt,value
2022-08-11T00:03:43.651Z,4.18
2022-08-11T00:08:50.640Z,3.95
2022-08-11T00:13:52.708Z,4.18
2022-08-11T00:18:57.451Z,3.55
2022-08-11T00:24:03.685Z,3.45
2022-08-11T00:29:10.997Z,3.72
2022-08-11T00:34:13.509Z,3.55
2022-08-11T00:39:17.865Z,4.43
2022-08-11T00:44:37.189Z,4.43
2022-08-11T00:50:02.901Z,3.78
2022-08-11T00:55:42.037Z,3.70
2022-08-11T01:01:17.491Z,3.53
2022-08-11T01:06:50.028Z,3.67
2022-08-11T01:11:56.587Z,3.72
2022-08-11T01:17:29.409Z,3.65
2022-08-11T01:22:40.342Z,3.90
2022-08-11T01:28:27.641Z,5.57
2022-08-11T01:33:39.145Z,4.70
2022-08-11T01:38:55.071Z,4.07
2022-08-11T01:44:30.332Z,4.47
2022-08-11T01:50:08.173Z,4.32
2022-08-11T01:55:26.822Z,4.28
2022-08-11T02:00:33.224Z,4.55
2022-08-11T02:06:02.464Z,5.00
2022-08-11T02:11:35.826Z,4.75
2022-08-11T02:17:16.183Z,4.70
2022-08-11T02:22:47.313Z,4.60
2022-08-11T02:27:55.614Z,4.32
2022-08-11T02:33:25.587Z,4.30
2022-08-11T02:38:43.482Z,4.72
2022-08-11T02:43:52.832Z,5.13
2022-08-11T02:49:22.221Z,5.30
2022-08-11T02:54:32.585Z,4.63
2022-08-11T02:59:51.341Z,4.80
2022-08-11T03:05:01.089Z,4.70
2022-08-11T03:10:22.778Z,5.22
2022-08-11T03:15:49.152Z,4.50
2022-08-11T03:21:06.966Z,5.10
2022-08-11T03:26:30.460Z,4.90
2022-08-11T03:31:37.211Z,4.60
2022-08-11T03:37:16.823Z,5.03
2022-08-11T03:42:33.176Z,5.20
2022-08-11T03:47:37.612Z,5.95
2022-08-11T03:53:08.529Z,5.05
2022-08-11T03:58:22.335Z,4.85
2022-08-11T04:03:48.712Z,5.30
2022-08-11T04:09:21.097Z,5.40
2022-08-11T04:15:03.059Z,5.95
2022-08-11T04:20:29.228Z,5.80
2022-08-11T04:25:58.243Z,5.07
2022-08-11T04:31:44.106Z,5.93
2022-08-11T04:37:24.708Z,5.22
2022-08-11T04:43:07.673Z,5.30
2022-08-11T04:48:53.190Z,5.20
2022-08-11T04:54:30.970Z,5.15
2022-08-11T04:59:54.436Z,5.22
2022-08-11T05:05:32.869Z,4.18
2022-08-11T05:10:52.266Z,4.30
2022-08-11T05:16:20.322Z,4.47
2022-08-11T05:21:44.670Z,4.40
2022-08-11T05:27:13.342Z,4.53
2022-08-11T05:32:36.343Z,3.72
2022-08-11T05:38:04.674Z,4.30
2022-08-11T05:43:32.728Z,4.57
2022-08-11T05:48:54.633Z,3.83
2022-08-11T05:54:29.265Z,4.10
2022-08-11T05:59:32.613Z,4.00
2022-08-11T06:04:35.111Z,4.65
2022-08-11T06:09:46.814Z,4.70
2022-08-11T06:14:51.342Z,3.60
2022-08-11T06:20:07.079Z,3.97
2022-08-11T06:25:11.531Z,5.38
2022-08-11T06:30:14.108Z,3.58
2022-08-11T06:35:30.659Z,3.53
2022-08-11T06:40:38.038Z,3.80
2022-08-11T06:45:51.404Z,3.72
2022-08-11T06:51:14.418Z,3.40
2022-08-11T06:56:41.913Z,6.88
2022-08-11T07:01:51.583Z,4.13
2022-08-11T07:07:39.992Z,2.70
2022-08-11T07:13:08.642Z,3.00
2022-08-11T07:18:46.406Z,3.30
2022-08-11T07:24:06.649Z,3.10
2022-08-11T07:29:11.254Z,2.90
2022-08-11T07:34:22.656Z,2.50
2022-08-11T07:39:36.068Z,2.55
2022-08-11T07:44:59.554Z,2.38
2022-08-11T07:50:19.942Z,1.98
2022-08-11T07:55:49.249Z,2.00
2022-08-11T08:01:10.719Z,2.42
2022-08-11T08:06:43.814Z,3.35
2022-08-11T08:12:05.604Z,2.03
2022-08-11T08:17:27.413Z,2.28
2022-08-11T08:22:38.149Z,2.63
2022-08-11T08:27:51.796Z,4.43
2022-08-11T08:32:57.736Z,2.55
2022-08-11T08:38:02.263Z,2.90
2022-08-11T08:43:09.866Z,2.40
2022-08-11T08:48:26.889Z,1.83
2022-08-11T08:53:33.812Z,3.42
2022-08-11T08:58:40.037Z,2.00
2022-08-11T09:04:04.958Z,1.85
2022-08-11T09:09:09.023Z,2.33
2022-08-11T09:14:15.199Z,1.90
2022-08-11T09:19:20.467Z,2.20
2022-08-11T09:24:40.995Z,2.20
2022-08-11T09:29:44.011Z,2.75
2022-08-11T09:34:45.875Z,2.47
2022-08-11T09:40:06.990Z,1.90
2022-08-11T09:45:12.453Z,2.42
2022-08-11T09:50:17.379Z,2.25
2022-08-11T09:55:20.564Z,2.58
2022-08-11T10:00:32.364Z,2.13
2022-08-11T10:06:07.328Z,1.98
2022-08-11T10:11:14.697Z,1.95
2022-08-11T10:16:17.843Z,1.90
2022-08-11T10:22:12.635Z,2.15
2022-08-11T10:27:15.983Z,2.20
2022-08-11T10:32:57.619Z,1.55
2022-08-11T10:38:06.315Z,1.77
2022-08-11T10:43:56.773Z,2.08
2022-08-11T10:48:39.660Z,2.03
2022-08-11T10:54:12.351Z,3.17
2022-08-11T10:59:16.134Z,1.80
2022-08-11T11:04:21.362Z,1.52
2022-08-11T11:09:32.519Z,1.55
2022-08-11T11:14:59.036Z,3.67
2022-08-11T11:20:03.853Z,2.30
2022-08-11T11:25:08.227Z,1.88
2022-08-11T11:30:12.410Z,2.25
2022-08-11T11:35:26.760Z,1.30
2022-08-11T11:40:31.704Z,1.95
2022-08-11T11:45:34.056Z,2.00
2022-08-11T11:50:37.892Z,2.13
2022-08-11T11:55:41.264Z,1.77
2022-08-11T12:01:02.614Z,1.70
2022-08-11T12:06:05.076Z,1.17
2022-08-11T12:11:29.381Z,1.48
2022-08-11T12:16:36.405Z,1.33
2022-08-11T12:22:00.667Z,2.03
2022-08-11T12:27:24.936Z,1.50
2022-08-11T12:32:31.777Z,1.50
2022-08-11T12:37:45.921Z,1.77
2022-08-11T12:43:11.829Z,1.17
2022-08-11T12:48:59.192Z,1.05
2022-08-11T12:54:13.835Z,1.10
2022-08-11T12:59:34.109Z,1.23
2022-08-11T13:04:59.272Z,1.25
2022-08-11T13:10:03.953Z,1.80
2022-08-11T13:15:07.175Z,2.70
2022-08-11T13:20:13.300Z,1.20
2022-08-11T13:25:16.629Z,1.70
2022-08-11T13:30:41.199Z,1.65
2022-08-11T13:35:50.473Z,1.50
2022-08-11T13:40:56.483Z,1.33
2022-08-11T13:46:18.467Z,1.50
2022-08-11T13:51:34.389Z,1.80
2022-08-11T13:56:44.113Z,1.55
2022-08-11T14:02:20.482Z,1.42
2022-08-11T14:07:17.536Z,1.50
2022-08-11T14:12:47.052Z,1.48
2022-08-11T14:17:55.598Z,1.42
2022-08-11T14:22:57.938Z,1.42
2022-08-11T14:28:31.105Z,1.60
2022-08-11T14:33:21.923Z,1.55
2022-08-11T14:38:23.693Z,1.75
2022-08-11T14:44:10.489Z,1.70
2022-08-11T14:49:16.659Z,1.67
2022-08-11T14:54:37.163Z,1.83
2022-08-11T14:59:39.673Z,1.63
2022-08-11T15:04:41.947Z,2.35
2022-08-11T15:15:27.404Z,1.50
2022-08-11T15:20:53.495Z,1.95
2022-08-11T15:26:00.733Z,1.65
2022-08-11T15:31:22.373Z,2.08
2022-08-11T15:36:44.553Z,1.75
2022-08-11T15:42:19.022Z,2.03
2022-08-11T15:47:26.043Z,1.67
2022-08-11T15:52:33.313Z,1.63
2022-08-11T15:57:57.536Z,2.10
2022-08-11T16:03:18.797Z,1.50
2022-08-11T16:08:32.878Z,1.42
2022-08-11T16:13:42.105Z,1.63
2022-08-11T16:18:53.964Z,1.88
2022-08-11T16:23:59.166Z,1.95
2022-08-11T16:29:02.827Z,2.53
2022-08-11T16:34:26.497Z,1.65
2022-08-11T16:39:28.471Z,2.63
2022-08-11T16:44:49.973Z,2.00
2022-08-11T16:49:54.407Z,2.00
2022-08-11T16:54:56.085Z,2.47
2022-08-11T17:00:02.998Z,2.30
2022-08-11T17:05:29.784Z,1.90
2022-08-11T17:11:03.887Z,1.85
2022-08-11T17:16:12.798Z,1.65
2022-08-11T17:21:26.629Z,1.20
2022-08-11T17:26:53.841Z,1.70
2022-08-11T17:32:15.131Z,1.70
2022-08-11T17:37:17.745Z,1.38
2022-08-11T17:42:38.960Z,1.70
2022-08-11T17:48:00.111Z,2.05
2022-08-11T17:53:21.968Z,1.80
2022-08-11T17:58:43.231Z,1.38
2022-08-11T18:03:56.255Z,1.77
2022-08-11T18:09:19.855Z,2.22
2022-08-11T18:14:42.276Z,1.77
2022-08-11T18:20:02.965Z,1.50
2022-08-11T18:25:29.637Z,2.10
2022-08-11T18:31:03.235Z,1.90
2022-08-11T18:36:28.657Z,1.58
2022-08-11T18:41:53.853Z,2.00
2022-08-11T18:47:15.713Z,1.83
2022-08-11T18:52:39.280Z,1.45
2022-08-11T18:58:01.377Z,1.75
2022-08-11T19:03:24.849Z,1.70
2022-08-11T19:08:49.239Z,1.50
2022-08-11T19:14:11.016Z,1.70
2022-08-11T19:19:34.334Z,1.92
2022-08-11T19:24:57.691Z,1.45
2022-08-11T19:30:19.239Z,1.73
2022-08-11T19:35:39.265Z,2.95
2022-08-11T19:41:00.433Z,1.52
2022-08-11T19:46:23.695Z,1.70
2022-08-11T19:51:44.938Z,1.60
2022-08-11T19:57:06.673Z,1.63
2022-08-11T20:02:28.158Z,1.85
2022-08-11T20:07:48.902Z,1.95
2022-08-11T20:13:11.162Z,1.65
2022-08-11T20:18:43.144Z,1.80
2022-08-11T20:24:07.085Z,2.50
2022-08-11T20:29:28.881Z,2.00
2022-08-11T20:34:51.341Z,2.35
2022-08-11T20:40:15.759Z,1.38
2022-08-11T20:45:37.922Z,3.30
2022-08-11T20:51:16.446Z,1.85
2022-08-11T20:56:39.493Z,2.38
2022-08-11T21:02:03.068Z,1.88
2022-08-11T21:13:24.024Z,2.35
2022-08-11T21:18:47.958Z,2.50
2022-08-11T21:24:10.776Z,2.05
2022-08-11T21:29:32.114Z,2.38
2022-08-11T21:34:53.773Z,2.42
2022-08-11T21:40:17.478Z,1.80
2022-08-11T21:45:39.245Z,1.98
2022-08-11T21:50:59.386Z,2.17
2022-08-11T21:56:20.196Z,2.03
2022-08-11T22:01:41.039Z,2.10
2022-08-11T22:07:03.298Z,1.92
2022-08-11T22:12:34.454Z,2.03
2022-08-11T22:18:03.244Z,2.60
2022-08-11T22:23:25.063Z,2.30
2022-08-11T22:28:55.388Z,2.38
2022-08-11T22:34:16.331Z,2.80
2022-08-11T22:39:37.706Z,2.38
2022-08-11T22:44:57.934Z,2.15
2022-08-11T22:50:19.668Z,3.08
2022-08-11T22:55:41.609Z,2.30
2022-08-11T23:01:02.359Z,2.10
2022-08-11T23:06:24.354Z,2.45
2022-08-11T23:12:05.829Z,2.08
2022-08-11T23:17:27.200Z,2.55
2022-08-11T23:22:50.101Z,1.90
2022-08-11T23:28:11.362Z,2.28
2022-08-11T23:33:35.562Z,2.20
2022-08-11T23:38:55.597Z,2.50
2022-08-11T23:44:17.018Z,2.25
2022-08-11T23:49:37.518Z,3.00
2022-08-11T23:54:58.074Z,2.10
